Time;durP1;ratioP1;P1;durP2;ratioP2;P2;SDS_P1;SDS_P2;PMS_P1;PMS_P2;Temp;Humidity;BMP_temperature;BMP_pressure;BME280_temperature;BME280_humidity;BME280_pressure;Samples;Min_cycle;Max_cycle;Signal;HPM_P1;HPM_P2
2023/05/09 00:02:07;;;;;;;6.90;3.73;;;;;;;17.14;nan;99765.63;5032986;28;20203;-78
2023/05/09 00:04:34;;;;;;;3.57;3.13;;;;;;;17.13;nan;99758.63;5033789;28;20669;-78
2023/05/09 00:06:59;;;;;;;5.40;3.60;;;;;;;17.09;nan;99763.34;5041364;28;20287;-78
2023/05/09 00:09:25;;;;;;;3.83;3.53;;;;;;;17.02;nan;99759.59;5043946;28;20377;-78
2023/05/09 00:11:50;;;;;;;2.90;2.70;;;;;;;16.99;nan;99750.06;5042923;28;21097;-78
2023/05/09 00:14:17;;;;;;;3.90;3.60;;;;;;;16.98;nan;99751.03;5039724;28;20249;-78
2023/05/09 00:16:43;;;;;;;3.38;3.15;;;;;;;16.99;nan;99747.41;5034660;28;20227;-78
2023/05/09 00:19:09;;;;;;;3.33;3.03;;;;;;;17.01;nan;99736.66;5035746;28;20717;-78
2023/05/09 00:21:34;;;;;;;3.67;3.37;;;;;;;17.00;nan;99746.44;5037681;28;20219;-78
2023/05/09 00:24:00;;;;;;;4.30;4.00;;;;;;;17.00;nan;99738.47;5036270;28;20225;-78
2023/05/09 00:26:26;;;;;;;3.67;2.93;;;;;;;17.02;nan;99741.00;5032182;28;20229;-78
2023/05/09 00:28:52;;;;;;;3.90;3.60;;;;;;;17.03;nan;99735.53;5035643;28;20210;-79
2023/05/09 00:31:17;;;;;;;5.80;3.47;;;;;;;17.07;nan;99727.34;5018010;28;20832;-78
2023/05/09 00:33:42;;;;;;;3.50;3.13;;;;;;;17.07;nan;99725.53;5036209;28;20223;-78
2023/05/09 00:36:08;;;;;;;3.67;3.37;;;;;;;17.05;nan;99723.97;5034461;28;20224;-78
2023/05/09 00:38:33;;;;;;;5.20;2.90;;;;;;;16.98;nan;99721.84;5034983;28;20219;-78
2023/05/09 00:40:59;;;;;;;4.80;3.60;;;;;;;16.93;nan;99726.75;5021074;28;20257;-78
2023/05/09 00:43:24;;;;;;;4.00;3.60;;;;;;;16.87;nan;99724.59;5019953;28;20255;-78
2023/05/09 00:45:50;;;;;;;3.90;3.37;;;;;;;16.82;nan;99710.91;5020573;28;20225;-78
2023/05/09 00:48:16;;;;;;;6.80;3.37;;;;;;;16.81;nan;99707.41;5018817;28;20242;-78
2023/05/09 00:50:42;;;;;;;3.30;3.00;;;;;;;16.84;nan;99713.44;5037808;28;20220;-78
2023/05/09 00:53:08;;;;;;;3.13;2.83;;;;;;;16.86;nan;99708.84;5039300;28;20218;-78
2023/05/09 00:55:35;;;;;;;7.07;3.63;;;;;;;16.87;nan;99706.03;5032901;28;20499;-79
2023/05/09 00:58:02;;;;;;;3.63;3.22;;;;;;;16.86;nan;99700.88;5020665;28;20230;-78
2023/05/09 01:00:28;;;;;;;3.15;2.85;;;;;;;16.85;nan;99702.69;5035941;28;20222;-78
2023/05/09 01:02:54;;;;;;;4.37;3.77;;;;;;;16.83;nan;99696.69;5037563;28;20290;-78
2023/05/09 01:05:23;;;;;;;5.30;4.10;;;;;;;16.85;nan;99707.16;5033930;28;20738;-78
2023/05/09 01:07:59;;;;;;;3.67;3.08;;;;;;;16.85;nan;99697.41;5033231;28;20278;-78
2023/05/09 01:10:42;;;;;;;3.67;3.15;;;;;;;16.83;nan;99694.03;5021143;28;20230;-78
2023/05/09 01:13:19;;;;;;;3.35;3.05;;;;;;;16.80;nan;99696.97;5034237;28;20220;-78
2023/05/09 01:15:56;;;;;;;5.00;3.97;;;;;;;16.79;nan;99689.97;5031294;28;20611;-78
2023/05/09 01:18:32;;;;;;;3.40;3.10;;;;;;;16.77;nan;99694.59;5039408;28;20213;-79
2023/05/09 01:21:07;;;;;;;3.90;3.47;;;;;;;16.73;nan;99687.81;5036908;28;20212;-78
2023/05/09 01:23:43;;;;;;;3.20;2.90;;;;;;;16.71;nan;99690.59;5026522;28;20313;-78
2023/05/09 01:26:23;;;;;;;18.53;4.23;;;;;;;16.70;nan;99682.78;5024318;28;20250;-78
2023/05/09 01:29:28;;;;;;;3.60;3.30;;;;;;;16.68;nan;99682.09;5043883;28;20464;-78
2023/05/09 01:31:55;;;;;;;3.72;3.22;;;;;;;16.65;nan;99680.53;5029286;28;20218;-79
2023/05/09 01:34:25;;;;;;;3.50;3.20;;;;;;;16.65;nan;99687.66;5023102;28;20085;-78
2023/05/09 01:36:52;;;;;;;5.53;3.50;;;;;;;16.65;nan;99679.69;5023634;28;21110;-78
2023/05/09 01:39:19;;;;;;;4.95;4.45;;;;;;;16.64;nan;99686.00;5036867;28;20243;-78
2023/05/09 01:41:45;;;;;;;5.78;3.05;;;;;;;16.63;nan;99681.66;5036383;28;20264;-78
2023/05/09 01:44:12;;;;;;;5.80;4.00;;;;;;;16.59;nan;99681.91;5041228;28;20238;-78
2023/05/09 01:46:38;;;;;;;4.50;3.38;;;;;;;16.51;nan;99673.78;5038394;28;20251;-78
2023/05/09 01:49:07;;;;;;;4.90;3.15;;;;;;;16.44;nan;99674.47;5041656;28;20634;-78
2023/05/09 01:51:33;;;;;;;5.90;3.65;;;;;;;16.41;nan;99672.06;5032438;22;20237;-80
2023/05/09 01:54:00;;;;;;;4.20;3.80;;;;;;;16.39;nan;99674.88;5018932;28;20215;-80
2023/05/09 01:56:26;;;;;;;5.30;4.28;;;;;;;16.36;nan;99667.16;5039729;28;20217;-81
2023/05/09 01:58:55;;;;;;;7.65;3.80;;;;;;;16.35;nan;99665.50;5037326;28;22825;-80
2023/05/09 02:01:21;;;;;;;5.20;3.60;;;;;;;16.35;nan;99653.06;5045079;28;20255;-81
2023/05/09 02:03:51;;;;;;;3.90;3.50;;;;;;;16.38;nan;99654.63;5025851;28;20688;-80
2023/05/09 02:06:21;;;;;;;3.22;3.03;;;;;;;16.38;nan;99652.81;5041338;28;20695;-80
2023/05/09 02:08:47;;;;;;;4.05;3.75;;;;;;;16.38;nan;99642.19;5023360;28;20211;-80
2023/05/09 02:11:13;;;;;;;4.15;3.72;;;;;;;16.40;nan;99643.91;5008658;28;20328;-81
2023/05/09 02:13:38;;;;;;;4.63;4.07;;;;;;;16.40;nan;99655.34;5023821;28;20243;-81
2023/05/09 02:16:06;;;;;;;10.73;3.13;;;;;;;16.41;nan;99653.53;5025788;28;20243;-80
2023/05/09 02:18:34;;;;;;;5.78;3.05;;;;;;;16.39;nan;99651.03;5038918;28;20587;-80
2023/05/09 02:21:01;;;;;;;4.88;4.05;;;;;;;16.37;nan;99645.84;5023682;28;20257;-80
2023/05/09 02:23:27;;;;;;;9.20;4.82;;;;;;;16.35;nan;99646.94;5025778;28;20220;-80
2023/05/09 02:25:53;;;;;;;4.03;3.63;;;;;;;16.34;nan;99646.09;5025140;28;20226;-81
2023/05/09 02:28:21;;;;;;;7.03;3.95;;;;;;;16.33;nan;99643.56;5026271;28;20226;-81
2023/05/09 02:30:49;;;;;;;5.07;3.80;;;;;;;16.32;nan;99642.75;5025721;28;20254;-81
2023/05/09 02:33:15;;;;;;;4.00;3.70;;;;;;;16.30;nan;99638.53;5025756;28;20230;-81
2023/05/09 02:35:43;;;;;;;4.40;3.80;;;;;;;16.32;nan;99647.22;5021326;28;20443;-80
2023/05/09 02:38:11;;;;;;;5.18;3.92;;;;;;;16.31;nan;99645.50;5024220;28;20274;-81
2023/05/09 02:40:36;;;;;;;4.25;3.38;;;;;;;16.29;nan;99644.84;5021900;28;20231;-80
2023/05/09 02:43:02;;;;;;;3.40;3.10;;;;;;;16.26;nan;99635.34;5025524;28;21037;-81
2023/05/09 02:45:28;;;;;;;3.28;2.80;;;;;;;16.23;nan;99640.91;5024688;28;22634;-81
2023/05/09 02:47:54;;;;;;;2.25;2.05;;;;;;;16.19;nan;99636.00;5023499;28;20308;-81
2023/05/09 02:50:20;;;;;;;3.30;2.45;;;;;;;16.12;nan;99647.13;5023018;28;21364;-81
2023/05/09 02:52:46;;;;;;;3.23;2.60;;;;;;;16.04;nan;99641.66;5021276;28;20243;-80
2023/05/09 02:55:11;;;;;;;3.07;2.73;;;;;;;15.98;nan;99644.81;5024073;28;20205;-81
2023/05/09 02:57:39;;;;;;;2.30;2.10;;;;;;;15.90;nan;99644.63;5025497;28;20211;-81
2023/05/09 03:00:08;;;;;;;3.93;2.80;;;;;;;15.83;nan;99636.38;5025397;28;20224;-81
2023/05/09 03:02:37;;;;;;;3.88;2.88;;;;;;;15.79;nan;99634.09;5022435;28;20219;-80
2023/05/09 03:05:04;;;;;;;3.75;3.08;;;;;;;15.78;nan;99637.72;5022335;28;20444;-81
2023/05/09 03:07:31;;;;;;;3.33;2.90;;;;;;;15.78;nan;99641.22;5029584;28;20236;-80
2023/05/09 03:09:57;;;;;;;3.60;2.97;;;;;;;15.77;nan;99642.19;5018968;28;20220;-80
2023/05/09 03:12:22;;;;;;;5.53;3.70;;;;;;;15.77;nan;99636.91;5021692;28;20294;-81
2023/05/09 03:14:51;;;;;;;3.97;3.45;;;;;;;15.77;nan;99633.38;5037990;28;20218;-80
2023/05/09 03:17:20;;;;;;;7.27;4.13;;;;;;;15.77;nan;99625.44;5023336;28;20213;-80
2023/05/09 03:19:48;;;;;;;3.80;3.28;;;;;;;15.76;nan;99626.44;5020234;28;20223;-80
2023/05/09 03:22:14;;;;;;;4.10;3.63;;;;;;;15.75;nan;99630.06;5020067;28;20209;-81
2023/05/09 03:24:49;;;;;;;4.15;3.70;;;;;;;15.74;nan;99621.25;5012079;28;20582;-80
2023/05/09 03:27:14;;;;;;;3.67;3.37;;;;;;;15.74;nan;99617.75;5023231;28;20215;-81
2023/05/09 03:29:40;;;;;;;4.07;3.67;;;;;;;15.72;nan;99617.06;5020559;28;20212;-81
2023/05/09 03:32:05;;;;;;;4.53;3.87;;;;;;;15.68;nan;99621.75;5021660;28;20261;-81
2023/05/09 03:34:31;;;;;;;3.87;3.57;;;;;;;15.67;nan;99625.38;5022344;28;20269;-81
2023/05/09 03:36:58;;;;;;;4.15;3.75;;;;;;;15.64;nan;99621.19;5020063;28;20292;-80
2023/05/09 03:39:24;;;;;;;3.90;3.03;;;;;;;15.61;nan;99616.16;5018841;28;20898;-81
2023/05/09 03:41:54;;;;;;;3.72;3.42;;;;;;;15.58;nan;99616.41;5018378;28;20222;-81
2023/05/09 03:44:19;;;;;;;4.03;3.73;;;;;;;15.57;nan;99611.22;5019376;28;20257;-81
2023/05/09 03:46:44;;;;;;;6.03;3.30;;;;;;;15.57;nan;99614.72;5018914;28;20259;-80
2023/05/09 03:49:11;;;;;;;5.25;3.17;;;;;;;15.56;nan;99613.03;5020493;28;20205;-81
2023/05/09 03:51:36;;;;;;;4.30;3.90;;;;;;;15.54;nan;99612.31;5020264;28;20596;-80
2023/05/09 03:54:05;;;;;;;5.53;4.13;;;;;;;15.56;nan;99620.16;5021218;28;20202;-81
2023/05/09 03:56:30;;;;;;;4.97;3.50;;;;;;;15.56;nan;99618.34;5019787;28;20239;-81
2023/05/09 03:58:56;;;;;;;6.17;4.67;;;;;;;15.56;nan;99617.50;5020949;28;20293;-81
2023/05/09 04:01:23;;;;;;;6.80;4.15;;;;;;;15.56;nan;99622.78;5020413;28;20748;-81
2023/05/09 04:03:50;;;;;;;5.73;3.30;;;;;;;15.54;nan;99630.84;5017760;28;20213;-80
2023/05/09 04:06:18;;;;;;;6.07;5.25;;;;;;;15.54;nan;99620.25;5019616;28;20205;-80
2023/05/09 04:08:44;;;;;;;6.93;5.45;;;;;;;15.54;nan;99614.97;5020378;28;20286;-81
2023/05/09 04:11:09;;;;;;;5.77;5.17;;;;;;;15.52;nan;99616.91;5020562;28;20928;-81
2023/05/09 04:13:37;;;;;;;6.15;5.60;;;;;;;15.51;nan;99614.41;5018819;28;21288;-80
2023/05/09 04:16:10;;;;;;;5.78;4.30;;;;;;;15.46;nan;99614.78;5019928;28;20213;-81
2023/05/09 04:18:38;;;;;;;4.50;4.10;;;;;;;15.44;nan;99616.69;5020020;28;20205;-80
2023/05/09 04:21:04;;;;;;;4.25;3.85;;;;;;;15.40;nan;99617.94;5016019;28;20218;-80
2023/05/09 04:23:30;;;;;;;4.35;3.95;;;;;;;15.38;nan;99612.75;5015862;28;20202;-81
2023/05/09 04:25:57;;;;;;;6.07;4.28;;;;;;;15.41;nan;99611.66;5016159;28;20627;-80
2023/05/09 04:28:23;;;;;;;4.97;4.17;;;;;;;15.40;nan;99608.19;5018922;28;20202;-80
2023/05/09 04:30:49;;;;;;;4.50;4.03;;;;;;;15.39;nan;99613.59;5015674;28;20472;-81
2023/05/09 04:33:15;;;;;;;4.30;3.53;;;;;;;15.39;nan;99610.94;5033874;28;20189;-80
2023/05/09 04:35:41;;;;;;;5.40;4.38;;;;;;;15.38;nan;99619.88;5022719;28;20450;-80
2023/05/09 04:38:07;;;;;;;7.15;4.75;;;;;;;15.38;nan;99607.47;5026099;28;20206;-80
2023/05/09 04:40:33;;;;;;;8.23;5.57;;;;;;;15.43;nan;99613.22;5023625;28;20207;-80
2023/05/09 04:42:59;;;;;;;5.45;4.47;;;;;;;15.49;nan;99612.69;5021845;28;20210;-80
2023/05/09 04:45:27;;;;;;;5.75;4.13;;;;;;;15.57;nan;99619.16;5023583;28;20276;-80
2023/05/09 04:47:53;;;;;;;8.00;5.40;;;;;;;15.62;nan;99607.22;5022417;28;20231;-80
2023/05/09 04:50:19;;;;;;;6.80;4.10;;;;;;;15.66;nan;99600.72;5021833;28;20228;-81
2023/05/09 04:52:44;;;;;;;6.20;4.60;;;;;;;15.70;nan;99603.97;5026773;28;20339;-80
2023/05/09 04:55:09;;;;;;;4.57;4.13;;;;;;;15.75;nan;99609.69;5023925;28;20252;-80
2023/05/09 04:57:39;;;;;;;5.93;4.55;;;;;;;15.80;nan;99607.50;5022929;28;20279;-80
2023/05/09 05:00:10;;;;;;;4.03;3.60;;;;;;;15.87;nan;99605.16;5023605;28;20291;-80
2023/05/09 05:02:36;;;;;;;5.35;4.60;;;;;;;15.91;nan;99604.78;5028913;28;20569;-80
2023/05/09 05:05:03;;;;;;;5.53;4.95;;;;;;;15.99;nan;99613.88;5023699;28;20549;-80
2023/05/09 05:07:28;;;;;;;5.35;4.95;;;;;;;16.02;nan;99609.16;5021578;28;20211;-80
2023/05/09 05:09:53;;;;;;;7.33;4.70;;;;;;;16.05;nan;99597.44;5021992;28;20221;-80
2023/05/09 05:12:19;;;;;;;5.17;4.70;;;;;;;16.06;nan;99604.41;5019416;28;20205;-80
2023/05/09 05:14:44;;;;;;;5.00;4.60;;;;;;;16.08;nan;99603.31;5025642;28;20575;-80
2023/05/09 05:17:17;;;;;;;4.70;4.30;;;;;;;16.14;nan;99602.75;5023003;28;20284;-80
2023/05/09 05:19:42;;;;;;;5.00;4.43;;;;;;;16.22;nan;99609.22;5023946;28;20223;-80
2023/05/09 05:22:08;;;;;;;5.83;4.90;;;;;;;16.24;nan;99607.28;5022628;28;20202;-81
2023/05/09 05:24:35;;;;;;;4.82;4.40;;;;;;;16.28;nan;99606.91;5022953;28;20268;-80
2023/05/09 05:27:02;;;;;;;7.07;5.00;;;;;;;16.34;nan;99598.41;5021356;28;20209;-81
2023/05/09 05:29:28;;;;;;;5.10;4.60;;;;;;;16.41;nan;99589.91;5022644;28;20222;-80
2023/05/09 05:31:53;;;;;;;5.63;5.03;;;;;;;16.45;nan;99591.31;5023641;28;20224;-81
2023/05/09 05:34:19;;;;;;;4.90;4.40;;;;;;;16.51;nan;99588.09;5024453;28;20266;-81
2023/05/09 05:36:46;;;;;;;7.40;5.47;;;;;;;16.58;nan;99584.78;5021455;28;20216;-81
2023/05/09 05:39:11;;;;;;;5.43;4.55;;;;;;;16.65;nan;99577.09;5024027;28;20679;-81
2023/05/09 05:41:37;;;;;;;7.07;5.00;;;;;;;16.75;nan;99582.44;5040013;28;20312;-81
2023/05/09 05:44:04;;;;;;;6.18;4.18;;;;;;;16.81;nan;99572.13;5025083;28;20706;-80
2023/05/09 05:46:30;;;;;;;4.28;3.88;;;;;;;16.90;nan;99572.28;5026603;28;20203;-81
2023/05/09 05:48:56;;;;;;;5.35;4.55;;;;;;;16.97;nan;99579.53;5022552;28;20219;-81
2023/05/09 05:51:22;;;;;;;5.20;3.70;;;;;;;17.02;nan;99579.97;5023738;28;20232;-81
2023/05/09 05:53:48;;;;;;;4.50;4.07;;;;;;;17.11;nan;99574.78;5024848;28;20507;-81
2023/05/09 05:56:13;;;;;;;6.83;4.63;;;;;;;17.19;nan;99567.81;5026539;28;20744;-81
2023/05/09 05:58:39;;;;;;;5.77;4.53;;;;;;;17.30;nan;99565.97;5024848;28;20204;-81
2023/05/09 06:01:05;;;;;;;5.72;5.20;;;;;;;17.42;nan;99562.19;5025153;28;20473;-81
2023/05/09 06:03:31;;;;;;;5.43;4.93;;;;;;;17.58;nan;99558.94;5029466;28;20194;-81
2023/05/09 06:06:00;;;;;;;6.43;5.25;;;;;;;18.01;nan;99554.91;5028256;28;20583;-82
2023/05/09 06:08:26;;;;;;;4.93;4.53;;;;;;;18.59;nan;99549.28;5026815;28;20212;-82
2023/05/09 06:10:51;;;;;;;4.50;4.10;;;;;;;19.23;nan;99552.72;5031065;28;20229;-86
2023/05/09 06:13:17;;;;;;;6.73;4.43;;;;;;;19.69;nan;99547.25;5026990;28;20207;-82
2023/05/09 06:15:47;;;;;;;5.00;4.50;;;;;;;19.89;nan;99541.50;5027335;28;20217;-82
2023/05/09 06:18:12;;;;;;;5.00;3.93;;;;;;;20.06;nan;99542.44;5026234;28;21004;-81
2023/05/09 06:20:38;;;;;;;6.87;3.97;;;;;;;20.21;nan;99539.16;5032655;28;20325;-80
2023/05/09 06:23:03;;;;;;;4.40;4.00;;;;;;;20.27;nan;99538.50;5026708;28;20611;-81
2023/05/09 06:25:28;;;;;;;7.43;3.67;;;;;;;20.34;nan;99539.53;5026729;28;20590;-80
2023/05/09 06:27:54;;;;;;;3.33;3.00;;;;;;;20.28;nan;99534.81;5028228;28;20214;-80
2023/05/09 06:30:19;;;;;;;3.50;3.20;;;;;;;20.10;nan;99533.09;5027895;28;20224;-80
2023/05/09 06:32:45;;;;;;;4.03;3.40;;;;;;;19.91;nan;99537.84;5028121;28;20257;-80
2023/05/09 06:35:10;;;;;;;3.93;3.60;;;;;;;19.76;nan;99530.44;5025661;28;20331;-79
2023/05/09 06:37:35;;;;;;;4.80;3.97;;;;;;;19.64;nan;99531.69;5026852;28;20203;-79
2023/05/09 06:40:01;;;;;;;4.53;4.10;;;;;;;19.49;nan;99526.09;5028706;28;20236;-80
2023/05/09 06:42:27;;;;;;;6.60;4.80;;;;;;;19.41;nan;99526.03;5028449;28;20222;-80
2023/05/09 06:44:52;;;;;;;4.40;3.90;;;;;;;19.42;nan;99520.56;5027773;28;20317;-80
2023/05/09 06:47:18;;;;;;;3.80;3.50;;;;;;;19.44;nan;99509.72;5026794;28;21093;-81
2023/05/09 06:49:43;;;;;;;4.47;4.07;;;;;;;19.43;nan;99502.75;5027340;28;20705;-81
2023/05/09 06:52:08;;;;;;;8.07;4.77;;;;;;;19.42;nan;99511.75;5028041;28;20219;-81
2023/05/09 06:54:34;;;;;;;5.73;5.20;;;;;;;19.42;nan;99507.25;5027762;28;20279;-80
2023/05/09 06:56:59;;;;;;;4.30;3.93;;;;;;;19.42;nan;99509.91;5027357;28;20705;-80
2023/05/09 06:59:25;;;;;;;4.93;4.40;;;;;;;19.45;nan;99498.09;5027043;28;20205;-81
2023/05/09 07:01:51;;;;;;;4.60;4.00;;;;;;;19.47;nan;99509.44;5041186;28;20244;-80
2023/05/09 07:04:16;;;;;;;4.53;4.03;;;;;;;19.50;nan;99498.47;5027068;28;20507;-80
2023/05/09 07:06:41;;;;;;;5.57;3.63;;;;;;;19.52;nan;99500.97;5027762;28;20627;-81
2023/05/09 07:09:07;;;;;;;4.13;3.70;;;;;;;19.50;nan;99492.31;5026544;28;20306;-81
2023/05/09 07:11:34;;;;;;;4.93;3.87;;;;;;;19.51;nan;99489.47;5027267;28;20666;-80
2023/05/09 07:14:00;;;;;;;4.30;3.90;;;;;;;19.51;nan;99484.16;5026947;28;20631;-80
2023/05/09 07:16:28;;;;;;;4.90;4.17;;;;;;;19.50;nan;99479.81;5027306;28;20962;-81
2023/05/09 07:18:53;;;;;;;4.73;3.67;;;;;;;19.51;nan;99481.47;5025756;28;20213;-81
2023/05/09 07:21:19;;;;;;;3.70;3.40;;;;;;;19.53;nan;99473.34;5027573;28;20463;-79
2023/05/09 07:23:44;;;;;;;4.60;3.47;;;;;;;19.57;nan;99475.50;5027277;28;20219;-81
2023/05/09 07:26:10;;;;;;;4.77;4.10;;;;;;;19.60;nan;99463.69;5023776;28;20715;-81
2023/05/09 07:28:35;;;;;;;3.80;3.23;;;;;;;19.61;nan;99463.56;5024475;28;20318;-77
2023/05/09 07:31:00;;;;;;;4.30;3.90;;;;;;;19.67;nan;99456.78;5021412;28;20233;-78
2023/05/09 07:33:27;;;;;;;4.43;3.77;;;;;;;19.75;nan;99458.66;5023067;28;20206;-78
2023/05/09 07:35:52;;;;;;;3.78;3.38;;;;;;;19.82;nan;99451.66;5023991;28;20424;-78
2023/05/09 07:38:17;;;;;;;4.10;3.10;;;;;;;19.94;nan;99449.56;5024746;28;20210;-78
2023/05/09 07:40:43;;;;;;;3.33;3.07;;;;;;;19.99;nan;99450.75;5024374;28;20222;-78
2023/05/09 07:43:08;;;;;;;3.90;3.60;;;;;;;19.95;nan;99452.06;5024226;28;20261;-78
2023/05/09 07:45:33;;;;;;;5.13;3.30;;;;;;;19.88;nan;99451.03;5023061;28;20254;-77
2023/05/09 07:47:59;;;;;;;4.40;3.17;;;;;;;19.92;nan;99440.88;5024876;28;20213;-77
2023/05/09 07:50:24;;;;;;;3.60;3.30;;;;;;;20.05;nan;99438.59;5072342;22;20264;-77
2023/05/09 07:52:51;;;;;;;4.80;3.60;;;;;;;20.19;nan;99429.13;5007731;28;20704;-76
2023/05/09 07:55:16;;;;;;;3.07;2.63;;;;;;;20.27;nan;99439.81;5014191;28;20489;-76
2023/05/09 07:57:42;;;;;;;3.73;3.43;;;;;;;20.36;nan;99424.63;5027499;28;20457;-75
2023/05/09 08:00:09;;;;;;;3.67;3.00;;;;;;;20.47;nan;99422.50;5028622;28;20261;-77
2023/05/09 08:02:40;;;;;;;3.20;3.00;;;;;;;20.58;nan;99423.19;5008790;28;20223;-77
2023/05/09 08:05:06;;;;;;;4.00;3.30;;;;;;;20.66;nan;99416.03;5008444;28;21019;-75
2023/05/09 08:07:32;;;;;;;3.10;2.90;;;;;;;20.75;nan;99408.84;5009149;28;20348;-75
2023/05/09 08:09:57;;;;;;;3.03;2.73;;;;;;;20.89;nan;99400.16;5009721;28;20472;-75
2023/05/09 08:12:23;;;;;;;3.10;2.90;;;;;;;20.98;nan;99407.16;5010345;28;20231;-76
2023/05/09 08:14:48;;;;;;;10.03;4.30;;;;;;;21.00;nan;99401.63;5009039;28;20203;-77
2023/05/09 08:17:13;;;;;;;5.10;3.10;;;;;;;21.07;nan;99399.97;5011737;28;20235;-76
2023/05/09 08:19:39;;;;;;;4.63;3.70;;;;;;;21.25;nan;99398.91;5010947;28;20216;-78
2023/05/09 08:22:04;;;;;;;4.00;3.30;;;;;;;21.39;nan;99391.06;5009534;28;20222;-76
2023/05/09 08:24:31;;;;;;;4.60;3.90;;;;;;;21.53;nan;99392.16;5008493;28;20639;-78
2023/05/09 08:26:56;;;;;;;3.50;2.87;;;;;;;21.69;nan;99385.91;5008503;28;20216;-78
2023/05/09 08:29:22;;;;;;;2.80;2.60;;;;;;;21.93;nan;99373.41;5010119;28;20439;-75
2023/05/09 08:31:47;;;;;;;4.27;3.40;;;;;;;22.19;nan;99373.09;5010289;28;20629;-78
2023/05/09 08:34:12;;;;;;;4.47;4.07;;;;;;;22.38;nan;99374.47;5010736;28;20378;-77
2023/05/09 08:36:39;;;;;;;4.10;3.70;;;;;;;22.53;nan;99370.00;5010541;28;20695;-77
2023/05/09 08:39:05;;;;;;;3.60;3.27;;;;;;;22.66;nan;99364.03;5010424;28;20482;-80
2023/05/09 08:41:34;;;;;;;4.03;3.07;;;;;;;22.82;nan;99365.69;5011676;28;20481;-79
2023/05/09 08:44:00;;;;;;;4.50;3.90;;;;;;;22.93;nan;99357.25;5011335;28;20257;-78
2023/05/09 08:46:30;;;;;;;3.80;3.50;;;;;;;22.94;nan;99348.19;5010456;28;20959;-77
2023/05/09 08:48:56;;;;;;;5.47;4.40;;;;;;;22.73;nan;99359.59;5009361;28;20787;-78
2023/05/09 08:51:22;;;;;;;5.20;3.93;;;;;;;22.54;nan;99344.88;5009515;28;20920;-77
2023/05/09 08:53:49;;;;;;;3.87;3.57;;;;;;;22.47;nan;99352.00;5011216;28;20557;-75
2023/05/09 08:56:14;;;;;;;3.87;3.30;;;;;;;22.52;nan;99350.44;5009083;28;20686;-76
2023/05/09 08:58:40;;;;;;;4.70;4.30;;;;;;;22.63;nan;99346.50;5011792;28;20473;-76
2023/05/09 09:01:06;;;;;;;4.67;3.73;;;;;;;22.60;nan;99351.34;5012417;28;20233;-75
2023/05/09 09:03:32;;;;;;;5.20;4.80;;;;;;;22.59;nan;99344.34;5012916;28;20436;-77
2023/05/09 09:05:58;;;;;;;4.97;4.40;;;;;;;22.67;nan;99334.38;5011295;28;20439;-78
2023/05/09 09:08:25;;;;;;;13.27;4.70;;;;;;;22.79;nan;99329.44;5012317;28;20875;-79
2023/05/09 09:10:50;;;;;;;5.60;3.90;;;;;;;23.00;nan;99318.00;5013914;28;20448;-78
2023/05/09 09:13:17;;;;;;;4.70;3.90;;;;;;;23.26;nan;99320.22;5013919;28;20798;-77
2023/05/09 09:15:44;;;;;;;7.13;4.87;;;;;;;23.50;nan;99310.22;5014147;28;20496;-78
2023/05/09 09:18:31;;;;;;;4.27;3.73;;;;;;;23.73;nan;99308.22;5014637;28;20451;-79
2023/05/09 09:21:01;;;;;;;4.80;3.97;;;;;;;23.95;nan;99298.34;5011015;28;20448;-79
2023/05/09 09:23:29;;;;;;;4.53;4.07;;;;;;;24.15;nan;99297.69;5009451;28;20805;-77
2023/05/09 09:26:03;;;;;;;3.90;3.53;;;;;;;24.25;nan;99299.03;5011151;28;20597;-79
2023/05/09 09:28:29;;;;;;;3.20;3.00;;;;;;;24.12;nan;99298.09;5010530;28;20433;-79
2023/05/09 09:30:55;;;;;;;4.37;3.93;;;;;;;23.95;nan;99290.31;5011205;28;20474;-78
2023/05/09 09:33:25;;;;;;;4.30;3.90;;;;;;;23.84;nan;99294.31;5009108;28;20421;-77
2023/05/09 09:35:53;;;;;;;4.80;4.00;;;;;;;23.81;nan;99291.16;5009778;28;20620;-79
2023/05/09 09:38:22;;;;;;;5.30;3.80;;;;;;;23.79;nan;99280.66;5016049;28;20458;-77
2023/05/09 09:40:51;;;;;;;4.97;4.10;;;;;;;23.80;nan;99284.16;5016484;28;20697;-79
2023/05/09 09:43:16;;;;;;;5.43;4.40;;;;;;;23.73;nan;99277.88;5015851;28;20448;-77
2023/05/09 09:45:42;;;;;;;5.20;4.27;;;;;;;23.61;nan;99275.69;5015190;28;20481;-77
2023/05/09 09:48:07;;;;;;;4.47;4.07;;;;;;;23.55;nan;99270.25;5011031;28;20216;-79
2023/05/09 09:50:33;;;;;;;5.80;4.23;;;;;;;23.54;nan;99268.56;5011293;28;20460;-77
2023/05/09 09:53:02;;;;;;;9.43;5.20;;;;;;;23.60;nan;99265.13;5012285;28;20743;-79
2023/05/09 09:55:27;;;;;;;4.13;3.80;;;;;;;23.65;nan;99262.72;5011186;28;20206;-77
2023/05/09 09:57:53;;;;;;;4.73;3.57;;;;;;;23.62;nan;99257.72;5013811;28;20917;-78
2023/05/09 10:00:25;;;;;;;5.53;3.60;;;;;;;23.55;nan;99246.97;5013041;28;20510;-78
2023/05/09 10:02:56;;;;;;;4.60;3.80;;;;;;;23.50;nan;99246.69;5013225;28;20435;-78
2023/05/09 10:05:24;;;;;;;4.00;3.60;;;;;;;23.62;nan;99239.78;5014677;28;20454;-79
2023/05/09 10:07:59;;;;;;;4.40;4.00;;;;;;;23.76;nan;99238.13;5015242;28;20220;-77
2023/05/09 10:10:28;;;;;;;4.70;4.30;;;;;;;23.85;nan;99238.81;5014671;28;20425;-77
2023/05/09 10:12:57;;;;;;;3.77;3.47;;;;;;;23.86;nan;99232.41;5020201;28;20459;-79
2023/05/09 10:15:24;;;;;;;4.20;3.80;;;;;;;23.89;nan;99223.16;5022109;28;20429;-79
2023/05/09 10:17:55;;;;;;;4.70;3.63;;;;;;;23.96;nan;99229.41;5014878;28;20438;-79
2023/05/09 10:20:21;;;;;;;4.13;3.73;;;;;;;23.97;nan;99221.16;5008447;28;20451;-79
2023/05/09 10:22:47;;;;;;;4.10;3.70;;;;;;;23.99;nan;99218.31;5008734;28;20443;-79
2023/05/09 10:25:24;;;;;;;3.63;3.30;;;;;;;24.15;nan;99201.09;5009294;28;20487;-79
2023/05/09 10:27:54;;;;;;;4.40;3.80;;;;;;;24.27;nan;99197.66;5008966;28;20492;-78
2023/05/09 10:30:30;;;;;;;5.17;4.03;;;;;;;24.40;nan;99196.09;5009563;28;20466;-78
2023/05/09 10:33:09;;;;;;;4.30;3.43;;;;;;;24.43;nan;99195.69;5009769;28;20436;-78
2023/05/09 10:35:39;;;;;;;4.20;3.47;;;;;;;24.39;nan;99186.38;5010490;28;20893;-78
2023/05/09 10:38:05;;;;;;;4.50;3.87;;;;;;;24.32;nan;99180.97;5008227;28;20248;-79
2023/05/09 10:40:32;;;;;;;3.60;3.30;;;;;;;24.46;nan;99173.84;5017224;28;20465;-79
2023/05/09 10:42:58;;;;;;;3.67;3.40;;;;;;;24.60;nan;99170.22;5018548;28;20431;-77
2023/05/09 10:45:24;;;;;;;3.70;3.40;;;;;;;24.61;nan;99174.56;5015133;28;20470;-78
2023/05/09 10:47:51;;;;;;;4.43;4.03;;;;;;;24.64;nan;99173.34;5009107;28;20208;-78
2023/05/09 10:50:17;;;;;;;2.97;2.77;;;;;;;24.67;nan;99168.38;5007666;28;20449;-79
2023/05/09 10:53:02;;;;;;;3.43;3.13;;;;;;;24.71;nan;99163.47;5007960;28;20553;-78
2023/05/09 10:55:46;;;;;;;3.57;3.27;;;;;;;24.41;nan;99162.84;5006720;28;20213;-79
2023/05/09 10:58:32;;;;;;;3.80;3.47;;;;;;;24.50;nan;99153.66;5008045;28;20447;-78
2023/05/09 11:01:02;;;;;;;3.77;3.40;;;;;;;24.66;nan;99141.75;5006907;28;20888;-78
2023/05/09 11:03:48;;;;;;;2.60;2.40;;;;;;;24.75;nan;99140.53;5007893;28;20978;-79
2023/05/09 11:06:39;;;;;;;3.40;3.10;;;;;;;24.75;nan;99132.47;5005621;28;20545;-79
2023/05/09 11:09:37;;;;;;;2.73;2.47;;;;;;;24.80;nan;99135.38;5007080;28;20218;-77
2023/05/09 11:12:14;;;;;;;4.50;2.30;;;;;;;24.92;nan;99119.50;5009106;28;20538;-77
2023/05/09 11:14:45;;;;;;;2.47;2.27;;;;;;;24.97;nan;99117.03;5009063;28;20439;-78
2023/05/09 11:17:26;;;;;;;2.93;2.53;;;;;;;25.02;nan;99116.44;5010133;28;20453;-78
2023/05/09 11:19:52;;;;;;;2.50;2.20;;;;;;;24.98;nan;99104.41;5010857;28;20422;-79
2023/05/09 11:22:26;;;;;;;4.33;2.50;;;;;;;24.99;nan;99103.41;5009656;28;20607;-79
2023/05/09 11:25:00;;;;;;;2.50;2.30;;;;;;;25.08;nan;99094.94;5010853;28;20226;-79
2023/05/09 11:27:27;;;;;;;3.60;2.40;;;;;;;25.02;nan;99089.56;5010441;28;20461;-79
2023/05/09 11:29:56;;;;;;;2.43;2.23;;;;;;;24.94;nan;99093.25;5008143;28;20518;-79
2023/05/09 11:32:27;;;;;;;2.10;2.00;;;;;;;24.92;nan;99084.56;5008617;28;20720;-79
2023/05/09 11:35:05;;;;;;;2.10;2.00;;;;;;;24.99;nan;99077.38;5009098;28;20755;-79
2023/05/09 11:37:31;;;;;;;1.87;1.70;;;;;;;25.05;nan;99073.84;5008807;28;20440;-79
2023/05/09 11:39:58;;;;;;;2.20;2.00;;;;;;;25.12;nan;99068.50;5009516;28;20425;-81
2023/05/09 11:42:28;;;;;;;2.67;1.60;;;;;;;25.03;nan;99067.03;5006346;28;20543;-80
2023/05/09 11:44:54;;;;;;;2.17;1.87;;;;;;;24.94;nan;99061.84;5009399;28;20452;-80
2023/05/09 11:47:20;;;;;;;2.20;1.77;;;;;;;24.97;nan;99057.94;5009273;28;20439;-81
2023/05/09 11:49:47;;;;;;;1.80;1.70;;;;;;;25.04;nan;99049.88;5010068;28;20472;-80
2023/05/09 11:52:13;;;;;;;2.03;1.60;;;;;;;25.05;nan;99057.72;5008838;28;20237;-81
2023/05/09 11:54:39;;;;;;;4.43;1.67;;;;;;;25.02;nan;99044.72;5010107;28;20427;-80